Aviation Digital Data Service (ADDS)

Output produced by TAFs form (1902 UTC 22 September 2017)
found at http://www.aviationweather.gov/adds/tafs/
 
LFSB 221830Z 18004KT CAVOK 15/10 Q1021 NOSIG
TAF LFSB 221700Z 2218/2318 18004KT CAVOK 
     PROB40 
     TEMPO 2223/2307 4000 BR 
     PROB30 
     TEMPO 2302/2306 VRB03KT 0800 BCFG SCT001 
     BECMG 2309/2312 35006KT
       
LSZH 221850Z VRB02KT CAVOK 15/11 Q1022 NOSIG
TAF LSZH 221725Z 2218/2324 VRB03KT CAVOK TX20/2314Z TN06/2304Z 
     BECMG 2300/2303 9999 SCT070 
     PROB40 2302/2307 3000 BCFG 
     PROB30 2303/2307 1200 PRFG SCT003 
     BECMG 2308/2310 CAVOK 
     TEMPO 2310/2318 05006KT
       
LSGG 221850Z VRB01KT CAVOK 15/11 Q1022 NOSIG
TAF LSGG 221725Z 2218/2324 VRB03KT CAVOK TX21/2315Z TN08/2305Z 
     BECMG 2309/2311 05007KT
       
LSZB 221850Z VRB01KT 9999 BKN140 13/11 Q1021 NOSIG
TAF AMD LSZB 221504Z 2215/2224 VRB03KT 9999 SCT130
       
LSZA 221850Z 36003KT CAVOK 15/12 Q1021 NOSIG
TAF LSZA 221425Z 2215/2224 VRB03KT CAVOK
       
LSZG 221850Z AUTO 06002KT CAVOK 14/12 Q1022
TAF LSZG 221425Z 2215/2224 VRB03KT CAVOK
       
LSZR 221850Z VRB02KT CAVOK 14/12 Q1022 NOSIG RMK Q
TAF LSZR 221425Z 2215/2224 VRB03KT CAVOK
       
LSGS 221850Z VRB03KT 9999 FEW150 17/07 Q1021
TAF LSGS 221425Z 2215/2224 24010KT CAVOK 
     BECMG 2216/2218 VRB03KT
       
LSGC 221850Z AUTO 00000KT 9999 NSC 09/07 Q1024
TAF LSGC 221425Z 2215/2224 VRB03KT CAVOK